Time;durP1;ratioP1;P1;durP2;ratioP2;P2;SDS_P1;SDS_P2;PMS_P1;PMS_P2;Temp;Humidity;BMP_temperature;BMP_pressure;BME280_temperature;BME280_humidity;BME280_pressure;Samples;Min_cycle;Max_cycle;Signal;HPM_P1;HPM_P2
2022/08/06 00:00:25;;;;;;;5.85;1.70;;;13.70;99.90;;;;;;5052347;28;20077;-60
2022/08/06 00:02:51;;;;;;;4.10;1.90;;;13.70;99.90;;;;;;5052513;28;20115;-60
2022/08/06 00:05:16;;;;;;;5.72;1.85;;;13.70;99.90;;;;;;5052367;28;20102;-59
2022/08/06 00:07:42;;;;;;;6.35;1.60;;;13.60;99.90;;;;;;5052293;28;20033;-60
2022/08/06 00:10:08;;;;;;;4.07;1.63;;;13.70;99.90;;;;;;5052333;28;20041;-60
2022/08/06 00:12:34;;;;;;;5.78;2.10;;;13.60;99.90;;;;;;5052109;28;20072;-60
2022/08/06 00:15:03;;;;;;;4.70;1.85;;;13.60;99.90;;;;;;5052210;28;20090;-59
2022/08/06 00:17:29;;;;;;;3.50;1.73;;;13.50;99.90;;;;;;5052366;28;20151;-59
2022/08/06 00:19:54;;;;;;;5.40;1.98;;;13.50;99.90;;;;;;5052147;28;20123;-60
2022/08/06 00:22:20;;;;;;;5.93;1.75;;;13.50;99.90;;;;;;5052096;28;20474;-60
2022/08/06 00:24:45;;;;;;;7.10;1.70;;;13.50;99.90;;;;;;5052124;28;20465;-59
2022/08/06 00:27:11;;;;;;;5.65;1.83;;;13.40;99.90;;;;;;5052092;28;20037;-59
2022/08/06 00:29:37;;;;;;;6.65;1.83;;;13.40;99.90;;;;;;5052278;28;20044;-59
2022/08/06 00:32:03;;;;;;;5.38;1.75;;;13.40;99.90;;;;;;5052083;28;20040;-62
2022/08/06 00:34:28;;;;;;;3.20;1.40;;;13.40;99.90;;;;;;5052045;28;20092;-61
2022/08/06 00:36:54;;;;;;;9.27;1.75;;;13.40;99.90;;;;;;5051727;28;20057;-60
2022/08/06 00:39:19;;;;;;;5.68;1.88;;;13.50;99.90;;;;;;5069853;28;20127;-60
2022/08/06 00:41:45;;;;;;;5.13;1.65;;;13.40;99.90;;;;;;5071987;28;20048;-58
2022/08/06 00:44:11;;;;;;;4.35;1.80;;;13.40;99.90;;;;;;5072152;28;20045;-60
2022/08/06 00:46:37;;;;;;;3.97;1.60;;;13.40;99.90;;;;;;5070724;28;20089;-60
2022/08/06 00:49:02;;;;;;;4.97;1.88;;;13.40;99.90;;;;;;5072042;28;20041;-60
2022/08/06 00:51:28;;;;;;;6.15;1.90;;;13.30;99.90;;;;;;5072399;28;20040;-60
2022/08/06 00:53:54;;;;;;;5.90;1.75;;;13.40;99.90;;;;;;5075796;28;20048;-60
2022/08/06 00:56:20;;;;;;;5.63;1.80;;;13.30;99.90;;;;;;5075803;28;20041;-60
2022/08/06 00:58:45;;;;;;;5.80;2.03;;;13.30;99.90;;;;;;5075867;28;20499;-60
2022/08/06 01:01:12;;;;;;;4.57;1.80;;;13.40;99.90;;;;;;5075856;28;20052;-60
2022/08/06 01:03:38;;;;;;;5.55;1.80;;;13.30;99.90;;;;;;5075840;28;20110;-60
2022/08/06 01:06:04;;;;;;;4.90;1.60;;;13.30;99.90;;;;;;5075636;28;20389;-60
2022/08/06 01:08:29;;;;;;;6.45;2.00;;;13.20;99.90;;;;;;5075343;28;20082;-60
2022/08/06 01:10:55;;;;;;;3.53;1.60;;;13.20;99.90;;;;;;5075311;28;20037;-60
2022/08/06 01:13:21;;;;;;;4.50;1.88;;;13.20;99.90;;;;;;5075643;28;20036;-59
2022/08/06 01:16:02;;;;;;;3.40;1.48;;;13.30;99.90;;;;;;5074088;28;20056;-60
2022/08/06 01:18:34;;;;;;;5.22;1.63;;;13.30;99.90;;;;;;5075440;28;20117;-60
2022/08/06 01:21:27;;;;;;;4.82;1.90;;;13.30;99.90;;;;;;5057862;28;20091;-60
2022/08/06 01:24:43;;;;;;;4.05;1.67;;;13.20;99.90;;;;;;5055389;28;20080;-60
2022/08/06 01:27:46;;;;;;;4.43;1.77;;;13.10;99.90;;;;;;5055133;28;20098;-60
2022/08/06 01:30:20;;;;;;;4.32;2.00;;;13.20;99.90;;;;;;5055348;28;20045;-60
2022/08/06 01:32:58;;;;;;;4.68;2.10;;;13.10;99.90;;;;;;5055283;28;20052;-60
2022/08/06 01:35:29;;;;;;;6.15;1.88;;;13.00;99.90;;;;;;5054947;28;20060;-60
2022/08/06 01:38:01;;;;;;;4.45;1.85;;;13.10;99.90;;;;;;5061328;28;20051;-60
2022/08/06 01:40:31;;;;;;;5.03;1.80;;;13.10;99.90;;;;;;5075203;28;20098;-59
2022/08/06 01:42:58;;;;;;;5.47;2.08;;;13.00;99.90;;;;;;5073414;28;20369;-59
2022/08/06 01:45:29;;;;;;;4.38;1.80;;;12.90;99.90;;;;;;5074838;28;20036;-60
2022/08/06 01:47:58;;;;;;;4.10;2.05;;;13.00;99.90;;;;;;5074730;28;20047;-60
2022/08/06 01:50:31;;;;;;;4.65;1.80;;;12.90;99.90;;;;;;5074749;28;20040;-60
2022/08/06 01:53:01;;;;;;;5.28;1.95;;;12.90;99.90;;;;;;5074990;28;20435;-59
2022/08/06 01:55:31;;;;;;;5.32;2.00;;;13.00;99.90;;;;;;5074604;28;20389;-59
2022/08/06 01:58:00;;;;;;;7.28;2.30;;;12.90;99.90;;;;;;5074729;28;20048;-59
2022/08/06 02:00:27;;;;;;;5.07;1.92;;;12.80;99.90;;;;;;5074625;28;20037;-60
2022/08/06 02:02:55;;;;;;;4.82;1.88;;;12.90;99.90;;;;;;5073951;28;20080;-60
2022/08/06 02:05:23;;;;;;;4.25;1.85;;;12.80;99.90;;;;;;5074767;28;20044;-60
2022/08/06 02:07:52;;;;;;;4.57;1.88;;;12.90;99.90;;;;;;5074484;28;20040;-59
2022/08/06 02:10:21;;;;;;;4.85;2.10;;;12.90;99.90;;;;;;5074425;28;20037;-60
2022/08/06 02:12:49;;;;;;;4.22;1.98;;;12.70;99.90;;;;;;5074310;28;20040;-59
2022/08/06 02:15:19;;;;;;;5.75;1.85;;;12.80;99.90;;;;;;5074193;28;20109;-60
2022/08/06 02:17:52;;;;;;;4.18;1.98;;;12.70;99.90;;;;;;5074555;28;20044;-60
2022/08/06 02:20:24;;;;;;;4.15;1.70;;;12.80;99.90;;;;;;5062477;28;20043;-60
2022/08/06 02:22:51;;;;;;;5.00;1.63;;;12.70;99.90;;;;;;5054108;28;20087;-60
2022/08/06 02:25:18;;;;;;;4.38;1.60;;;12.80;99.90;;;;;;5053790;28;20049;-60
2022/08/06 02:27:50;;;;;;;5.65;1.77;;;12.70;99.90;;;;;;5054138;28;20094;-60
2022/08/06 02:30:16;;;;;;;4.18;1.70;;;12.80;99.90;;;;;;5053925;28;20473;-60
2022/08/06 02:32:42;;;;;;;4.68;1.80;;;12.70;99.90;;;;;;5054030;28;20060;-60
2022/08/06 02:35:09;;;;;;;4.10;1.90;;;12.60;99.90;;;;;;5053806;28;20047;-60
2022/08/06 02:37:37;;;;;;;5.38;1.83;;;12.60;99.90;;;;;;5057291;28;20040;-60
2022/08/06 02:40:09;;;;;;;4.88;1.70;;;12.60;99.90;;;;;;5073792;28;20115;-60
2022/08/06 02:42:50;;;;;;;5.22;2.17;;;12.70;99.90;;;;;;5073760;28;20051;-60
2022/08/06 02:45:33;;;;;;;4.55;1.75;;;12.60;99.90;;;;;;5073671;28;20044;-60
2022/08/06 02:48:24;;;;;;;5.18;1.95;;;12.60;99.90;;;;;;5073650;28;20118;-60
2022/08/06 02:50:53;;;;;;;6.43;2.22;;;12.60;99.90;;;;;;5073567;28;20602;-59
2022/08/06 02:53:28;;;;;;;4.38;1.85;;;12.60;99.90;;;;;;5073646;28;20044;-59
2022/08/06 02:55:59;;;;;;;3.53;1.45;;;12.60;99.90;;;;;;5073754;28;20048;-60
2022/08/06 02:58:35;;;;;;;7.90;1.83;;;12.70;99.90;;;;;;5072420;28;20044;-59
2022/08/06 03:01:06;;;;;;;4.03;1.60;;;12.70;99.90;;;;;;5073480;28;20041;-60
2022/08/06 03:03:33;;;;;;;4.18;1.67;;;12.70;99.90;;;;;;5072261;28;20036;-60
2022/08/06 03:06:03;;;;;;;5.47;1.60;;;12.70;99.90;;;;;;5073476;28;20041;-59
2022/08/06 03:08:30;;;;;;;4.00;1.60;;;12.70;99.90;;;;;;5073494;28;20041;-60
2022/08/06 03:10:57;;;;;;;5.20;1.60;;;12.60;99.90;;;;;;5055579;28;20482;-60
2022/08/06 03:13:23;;;;;;;4.22;1.60;;;12.60;99.90;;;;;;5072994;28;20048;-59
2022/08/06 03:15:50;;;;;;;4.32;1.60;;;12.60;99.90;;;;;;5072251;28;20044;-61
2022/08/06 03:18:18;;;;;;;5.82;1.73;;;12.60;99.90;;;;;;5073087;28;20488;-60
2022/08/06 03:20:45;;;;;;;4.88;1.60;;;12.60;99.90;;;;;;5057701;28;20497;-59
2022/08/06 03:23:13;;;;;;;5.15;1.63;;;12.60;99.90;;;;;;5053123;28;20048;-59
2022/08/06 03:25:40;;;;;;;5.15;1.85;;;12.60;99.90;;;;;;5052840;28;20492;-60
2022/08/06 03:28:07;;;;;;;6.03;1.88;;;12.70;99.90;;;;;;5053025;28;20124;-60
2022/08/06 03:30:34;;;;;;;4.32;1.63;;;12.70;99.90;;;;;;5051628;28;20370;-60
2022/08/06 03:33:02;;;;;;;3.63;1.35;;;12.70;99.90;;;;;;5052966;28;20041;-59
2022/08/06 03:35:28;;;;;;;4.38;1.50;;;12.70;99.90;;;;;;5052924;28;20071;-59
2022/08/06 03:37:56;;;;;;;5.38;1.70;;;12.70;99.90;;;;;;5058925;28;20404;-60
2022/08/06 03:40:24;;;;;;;5.25;1.42;;;12.80;99.90;;;;;;5072710;28;20037;-60
2022/08/06 03:42:50;;;;;;;4.72;1.60;;;12.60;99.90;;;;;;5072696;28;20040;-60
2022/08/06 03:45:16;;;;;;;4.07;1.48;;;12.60;99.90;;;;;;5072734;28;20423;-60
2022/08/06 03:47:52;;;;;;;4.03;1.40;;;12.70;99.90;;;;;;5072830;28;20055;-60
2022/08/06 03:50:26;;;;;;;5.60;1.80;;;12.70;99.90;;;;;;5072652;28;20048;-60
2022/08/06 03:52:59;;;;;;;3.92;1.60;;;12.60;99.90;;;;;;5072552;28;20107;-60
2022/08/06 03:55:28;;;;;;;4.95;2.03;;;12.60;99.90;;;;;;5072444;28;20358;-60
2022/08/06 03:57:57;;;;;;;4.43;1.92;;;12.60;99.90;;;;;;5072525;28;20044;-60
2022/08/06 04:00:26;;;;;;;5.00;2.03;;;12.70;99.90;;;;;;5072558;28;20043;-60
2022/08/06 04:02:54;;;;;;;5.20;2.15;;;12.60;99.90;;;;;;5072393;28;20055;-60
2022/08/06 04:05:21;;;;;;;3.83;1.70;;;12.70;99.90;;;;;;5072373;28;20043;-59
2022/08/06 04:07:49;;;;;;;5.22;2.10;;;12.70;99.90;;;;;;5071126;28;20072;-60
2022/08/06 04:10:16;;;;;;;4.38;1.70;;;12.50;99.90;;;;;;5072284;28;20158;-60
2022/08/06 04:12:44;;;;;;;4.75;1.85;;;12.20;99.90;;;;;;5072474;28;20044;-60
2022/08/06 04:15:12;;;;;;;5.72;1.90;;;12.30;99.90;;;;;;5072204;28;20052;-60
2022/08/06 04:17:39;;;;;;;5.60;2.15;;;12.50;99.90;;;;;;5072396;28;20079;-60
2022/08/06 04:20:07;;;;;;;4.22;1.80;;;12.70;99.90;;;;;;5061987;28;20044;-60
2022/08/06 04:22:33;;;;;;;4.60;2.00;;;12.70;99.90;;;;;;5052044;28;20049;-60
2022/08/06 04:24:59;;;;;;;3.97;2.00;;;12.70;99.90;;;;;;5051827;28;20033;-60
2022/08/06 04:27:27;;;;;;;4.18;1.77;;;12.60;99.90;;;;;;5052046;28;20036;-60
2022/08/06 04:29:55;;;;;;;5.15;2.00;;;12.80;99.90;;;;;;5052019;28;20037;-60
2022/08/06 04:32:23;;;;;;;4.57;1.95;;;12.80;99.90;;;;;;5052160;28;20037;-60
2022/08/06 04:34:49;;;;;;;5.00;1.90;;;12.70;99.90;;;;;;5051959;28;20123;-60
2022/08/06 04:37:15;;;;;;;6.07;1.88;;;12.80;99.90;;;;;;5052470;28;20520;-60
2022/08/06 04:39:42;;;;;;;4.55;2.03;;;12.80;99.90;;;;;;5072074;28;20124;-58
2022/08/06 04:42:08;;;;;;;5.88;2.33;;;12.80;99.90;;;;;;5072200;28;20090;-60
2022/08/06 04:44:35;;;;;;;4.82;2.10;;;12.90;99.90;;;;;;5072064;28;20076;-60
2022/08/06 04:47:02;;;;;;;4.35;2.03;;;12.80;99.90;;;;;;5071853;28;20048;-60
2022/08/06 04:49:29;;;;;;;5.30;2.50;;;12.90;99.90;;;;;;5071902;28;20492;-59
2022/08/06 04:51:55;;;;;;;5.05;1.98;;;12.90;99.90;;;;;;5072047;28;20044;-59
2022/08/06 04:54:21;;;;;;;5.45;2.08;;;12.90;99.90;;;;;;5072099;28;20127;-60
2022/08/06 04:56:47;;;;;;;3.95;1.83;;;12.90;99.90;;;;;;5071915;28;20112;-59
2022/08/06 04:59:13;;;;;;;5.35;2.35;;;12.80;99.90;;;;;;5071812;28;20047;-60
2022/08/06 05:01:38;;;;;;;6.32;2.67;;;12.90;99.90;;;;;;5071800;28;20072;-61
2022/08/06 05:04:04;;;;;;;8.15;2.80;;;12.90;99.90;;;;;;5071759;28;20076;-60
2022/08/06 05:06:55;;;;;;;6.07;2.20;;;12.80;99.90;;;;;;5070832;28;20048;-59
2022/08/06 05:09:24;;;;;;;6.22;2.40;;;12.90;99.90;;;;;;5071907;28;20040;-59
2022/08/06 05:12:03;;;;;;;4.32;1.98;;;12.90;99.90;;;;;;5071751;28;20043;-59
2022/08/06 05:14:36;;;;;;;6.32;2.40;;;13.10;99.90;;;;;;5071611;28;20370;-59
2022/08/06 05:17:04;;;;;;;5.30;2.00;;;13.20;99.90;;;;;;5070617;28;20128;-60
2022/08/06 05:19:42;;;;;;;5.55;2.40;;;13.20;99.90;;;;;;5066700;28;20048;-60
2022/08/06 05:22:10;;;;;;;3.67;1.80;;;13.30;99.90;;;;;;5051560;28;20564;-59
2022/08/06 05:24:37;;;;;;;5.30;1.98;;;13.30;99.90;;;;;;5051889;28;20385;-60
2022/08/06 05:27:02;;;;;;;6.28;2.38;;;13.30;99.90;;;;;;5051373;28;20124;-60
2022/08/06 05:29:28;;;;;;;5.57;2.10;;;13.30;99.90;;;;;;5051548;28;20133;-60
2022/08/06 05:31:59;;;;;;;7.50;2.22;;;13.20;99.90;;;;;;5066944;28;20120;-60
2022/08/06 05:34:25;;;;;;;8.55;2.25;;;13.20;99.90;;;;;;5051531;28;20137;-59
2022/08/06 05:36:50;;;;;;;7.25;2.60;;;13.10;99.90;;;;;;5051381;28;20553;-60
2022/08/06 05:39:16;;;;;;;5.43;2.50;;;13.10;99.90;;;;;;5072222;28;20046;-59
2022/08/06 05:41:42;;;;;;;6.25;2.42;;;13.10;99.90;;;;;;5074996;28;20427;-60
2022/08/06 05:44:08;;;;;;;4.78;2.55;;;13.10;99.90;;;;;;5075203;28;20448;-60
2022/08/06 05:46:51;;;;;;;6.55;2.85;;;13.20;99.90;;;;;;5075087;28;20128;-60
2022/08/06 05:49:22;;;;;;;5.50;2.40;;;13.20;99.90;;;;;;5074863;28;20119;-59
2022/08/06 05:51:53;;;;;;;4.97;2.35;;;13.20;99.90;;;;;;5074870;28;20485;-60
2022/08/06 05:54:26;;;;;;;5.00;2.33;;;13.20;99.90;;;;;;5074691;28;20072;-60
2022/08/06 05:56:58;;;;;;;4.78;2.63;;;13.30;99.90;;;;;;5074711;28;20119;-60
2022/08/06 05:59:26;;;;;;;;;;;13.50;99.90;;;;;;5075313;28;20400;-60
2022/08/06 06:01:53;;;;;;;6.38;2.65;;;13.80;99.90;;;;;;5074951;28;19920;-60
2022/08/06 06:04:20;;;;;;;6.25;2.53;;;14.10;99.90;;;;;;5075536;28;20445;-59
2022/08/06 06:06:46;;;;;;;4.20;2.20;;;14.20;99.90;;;;;;5074600;28;20439;-59
2022/08/06 06:09:13;;;;;;;5.95;2.03;;;14.30;99.90;;;;;;5074509;28;20041;-60
2022/08/06 06:11:40;;;;;;;5.32;2.22;;;14.60;99.90;;;;;;5074339;28;20131;-60
2022/08/06 06:14:20;;;;;;;7.13;2.28;;;14.70;99.90;;;;;;5074421;28;20047;-60
2022/08/06 06:17:09;;;;;;;7.05;2.20;;;14.50;99.90;;;;;;5074087;28;20044;-60
2022/08/06 06:20:20;;;;;;;4.03;1.73;;;14.70;99.90;;;;;;5068623;28;20060;-60
2022/08/06 06:23:17;;;;;;;4.43;2.13;;;14.60;99.90;;;;;;5048717;28;20048;-60
2022/08/06 06:26:11;;;;;;;7.10;2.42;;;14.70;99.90;;;;;;5054029;28;20604;-60
2022/08/06 06:29:18;;;;;;;6.10;2.35;;;14.60;99.90;;;;;;5054181;28;20055;-60
2022/08/06 06:32:09;;;;;;;8.90;2.10;;;14.60;99.90;;;;;;5042580;28;20493;-61
2022/08/06 06:34:54;;;;;;;6.00;2.20;;;14.80;99.90;;;;;;5054178;28;20041;-60
2022/08/06 06:37:38;;;;;;;5.38;1.80;;;14.90;99.90;;;;;;5055123;28;20106;-60
2022/08/06 06:40:20;;;;;;;5.40;2.10;;;14.90;99.90;;;;;;5073720;28;20088;-60
2022/08/06 06:43:16;;;;;;;4.50;2.07;;;15.00;99.90;;;;;;5073291;28;20426;-59
2022/08/06 06:45:47;;;;;;;4.88;1.70;;;15.10;99.90;;;;;;5071910;28;20314;-60
2022/08/06 06:48:18;;;;;;;5.23;2.23;;;15.20;99.90;;;;;;5072718;28;20062;-60
2022/08/06 06:50:52;;;;;;;5.30;1.90;;;15.20;99.90;;;;;;5072925;28;20039;-60
2022/08/06 06:53:18;;;;;;;4.78;2.00;;;15.40;99.90;;;;;;5072727;28;20116;-60
2022/08/06 06:55:47;;;;;;;6.07;1.60;;;15.70;99.90;;;;;;5072736;28;20123;-60
2022/08/06 06:58:27;;;;;;;6.47;1.60;;;15.80;99.90;;;;;;5072827;28;20389;-60
2022/08/06 07:00:55;;;;;;;4.95;1.67;;;15.90;99.90;;;;;;5072700;28;20423;-60
2022/08/06 07:03:23;;;;;;;5.63;1.30;;;16.10;99.90;;;;;;5072759;28;20052;-60
2022/08/06 07:05:50;;;;;;;6.35;1.48;;;16.40;99.90;;;;;;5072620;28;20045;-60
2022/08/06 07:08:20;;;;;;;3.70;1.17;;;16.40;99.90;;;;;;5072698;28;20045;-60
2022/08/06 07:10:46;;;;;;;5.70;1.02;;;16.30;99.90;;;;;;5072292;28;20135;-60
2022/08/06 07:13:14;;;;;;;4.03;1.35;;;16.20;99.90;;;;;;5071004;28;20040;-60
2022/08/06 07:15:41;;;;;;;7.05;1.83;;;16.10;99.90;;;;;;5072149;28;20196;-60
2022/08/06 07:18:08;;;;;;;4.40;1.10;;;16.10;99.90;;;;;;5071135;28;20070;-60
2022/08/06 07:20:34;;;;;;;3.47;0.90;;;16.30;99.90;;;;;;5040228;28;20098;-60
2022/08/06 07:23:03;;;;;;;5.78;1.15;;;16.50;99.90;;;;;;5052329;28;20040;-60
2022/08/06 07:25:29;;;;;;;3.38;1.00;;;16.70;99.90;;;;;;5052083;28;20056;-60
2022/08/06 07:27:55;;;;;;;5.45;1.15;;;16.90;99.90;;;;;;5052005;28;20102;-60
2022/08/06 07:30:21;;;;;;;4.88;1.00;;;17.00;99.90;;;;;;5052339;28;20037;-60
2022/08/06 07:32:49;;;;;;;2.97;0.80;;;17.20;99.90;;;;;;5052292;28;20041;-60
2022/08/06 07:35:17;;;;;;;3.13;0.80;;;17.20;99.90;;;;;;5050590;28;20045;-60
2022/08/06 07:38:04;;;;;;;4.07;0.85;;;17.30;99.90;;;;;;5056520;28;20141;-59
2022/08/06 07:40:38;;;;;;;4.10;0.93;;;17.30;99.90;;;;;;5071636;28;20048;-60
2022/08/06 07:43:35;;;;;;;5.00;0.90;;;17.50;99.90;;;;;;5070541;28;20508;-60
2022/08/06 07:46:05;;;;;;;3.92;0.98;;;17.60;99.90;;;;;;5071291;28;20040;-60
2022/08/06 07:48:34;;;;;;;5.22;0.82;;;17.50;99.90;;;;;;5071520;28;20048;-60
2022/08/06 07:51:03;;;;;;;2.80;0.70;;;17.60;99.90;;;;;;5071531;28;20044;-60
2022/08/06 07:53:30;;;;;;;4.18;0.90;;;17.70;99.90;;;;;;5071543;28;20064;-60
2022/08/06 07:55:57;;;;;;;9.93;1.90;;;17.40;99.90;;;;;;5071505;28;20052;-60
2022/08/06 07:58:23;;;;;;;6.13;1.00;;;17.60;99.90;;;;;;5071545;28;20526;-60
2022/08/06 08:00:49;;;;;;;5.60;1.40;;;17.90;99.90;;;;;;5071027;28;20052;-60
2022/08/06 08:06:22;;;;;;;3.35;0.93;;;18.20;99.90;;;;;;5071420;28;20056;-60
2022/08/06 08:09:05;;;;;;;4.18;0.82;;;18.50;99.90;;;;;;5071557;28;20044;-60
2022/08/06 08:11:33;;;;;;;5.20;0.60;;;18.50;99.90;;;;;;5071504;28;20048;-60
2022/08/06 08:13:59;;;;;;;3.33;0.85;;;18.30;99.90;;;;;;5071653;28;20674;-62
2022/08/06 08:16:26;;;;;;;3.15;0.80;;;17.90;99.90;;;;;;5071231;28;20059;-61
2022/08/06 08:18:52;;;;;;;8.40;1.58;;;17.60;99.90;;;;;;5071036;28;20048;-60
2022/08/06 08:21:19;;;;;;;4.43;1.17;;;17.30;99.90;;;;;;5051164;28;20037;-60
2022/08/06 08:23:47;;;;;;;5.45;0.95;;;17.20;99.90;;;;;;5051093;28;20052;-60
2022/08/06 08:26:13;;;;;;;6.57;1.52;;;17.00;99.90;;;;;;5050977;28;20041;-60
2022/08/06 08:28:39;;;;;;;4.60;0.90;;;16.90;99.90;;;;;;5051376;28;20112;-60
2022/08/06 08:31:06;;;;;;;6.25;1.17;;;16.90;99.90;;;;;;5051054;28;20128;-60
2022/08/06 08:33:32;;;;;;;4.38;0.90;;;16.80;99.90;;;;;;5051203;28;20095;-59
2022/08/06 08:35:58;;;;;;;5.97;1.10;;;16.90;99.90;;;;;;5050865;28;20061;-60
2022/08/06 08:38:24;;;;;;;5.30;1.25;;;16.90;99.90;;;;;;5061387;28;20028;-61
2022/08/06 08:40:53;;;;;;;5.03;1.30;;;17.00;99.90;;;;;;5071092;28;20635;-60
2022/08/06 08:43:25;;;;;;;5.65;1.42;;;17.00;99.90;;;;;;5071339;28;20066;-60
2022/08/06 08:45:51;;;;;;;6.80;1.55;;;17.00;99.90;;;;;;5071295;28;20044;-61
2022/08/06 08:48:24;;;;;;;6.10;1.52;;;16.90;99.90;;;;;;5071711;28;20043;-59
2022/08/06 08:50:50;;;;;;;6.30;1.75;;;16.80;99.90;;;;;;5071781;28;20462;-60
2022/08/06 08:53:33;;;;;;;7.40;1.65;;;16.80;99.90;;;;;;5071715;28;20049;-60
2022/08/06 08:56:01;;;;;;;10.25;1.77;;;16.90;99.90;;;;;;5071930;28;20110;-61
2022/08/06 08:58:27;;;;;;;5.95;1.67;;;17.20;99.90;;;;;;5071893;28;20109;-60
2022/08/06 09:00:53;;;;;;;4.45;1.50;;;17.60;99.90;;;;;;5071714;28;20037;-60
2022/08/06 09:03:19;;;;;;;4.63;1.48;;;17.90;99.90;;;;;;5071648;28;20033;-61
2022/08/06 09:05:45;;;;;;;4.47;1.35;;;17.80;99.90;;;;;;5071552;28;20374;-60
2022/08/06 09:08:11;;;;;;;4.90;1.50;;;17.50;99.90;;;;;;5071714;28;20044;-60
2022/08/06 09:10:37;;;;;;;7.32;1.60;;;17.60;99.90;;;;;;5071451;28;20068;-60
2022/08/06 09:13:03;;;;;;;6.78;2.00;;;17.90;99.90;;;;;;5073297;28;20119;-61
2022/08/06 09:15:29;;;;;;;5.30;1.48;;;18.10;99.90;;;;;;5075228;28;20501;-60
2022/08/06 09:17:55;;;;;;;5.53;1.50;;;18.30;99.90;;;;;;5075457;28;20048;-61
2022/08/06 09:20:21;;;;;;;9.23;1.73;;;18.40;99.90;;;;;;5062817;28;20122;-60
2022/08/06 09:22:50;;;;;;;5.30;1.63;;;18.60;99.90;;;;;;5055454;28;20041;-60
2022/08/06 09:25:40;;;;;;;4.18;1.45;;;18.60;99.90;;;;;;5055434;28;20055;-60
2022/08/06 09:28:11;;;;;;;5.53;1.52;;;18.70;99.90;;;;;;5055185;28;20037;-60
2022/08/06 09:30:38;;;;;;;6.13;2.03;;;18.50;99.90;;;;;;5055231;28;20037;-61
2022/08/06 09:33:10;;;;;;;7.35;2.22;;;18.80;99.90;;;;;;5070579;28;20041;-61
2022/08/06 09:35:36;;;;;;;7.05;1.60;;;19.00;99.90;;;;;;5054843;28;20061;-61
2022/08/06 09:38:08;;;;;;;5.22;1.65;;;19.20;99.90;;;;;;5062334;28;20040;-60
2022/08/06 09:40:33;;;;;;;4.30;1.60;;;18.80;99.90;;;;;;5075159;28;20055;-60
2022/08/06 09:43:00;;;;;;;5.35;1.80;;;18.60;99.90;;;;;;5074939;28;20044;-61
2022/08/06 09:45:26;;;;;;;5.50;1.90;;;19.00;99.90;;;;;;5074630;28;20123;-60
2022/08/06 09:48:06;;;;;;;7.38;1.80;;;19.20;99.90;;;;;;5074880;28;20037;-60
2022/08/06 09:50:41;;;;;;;7.05;1.85;;;18.80;99.90;;;;;;5074967;28;20032;-60
2022/08/06 09:53:07;;;;;;;4.25;1.70;;;18.80;99.90;;;;;;5074661;28;20115;-59
2022/08/06 09:55:33;;;;;;;6.60;1.80;;;19.00;99.90;;;;;;5074631;28;20041;-59
2022/08/06 09:57:59;;;;;;;5.18;1.70;;;19.00;99.90;;;;;;5074628;28;20061;-59
2022/08/06 10:00:30;;;;;;;5.55;1.67;;;19.10;99.90;;;;;;5074923;28;20084;-60
2022/08/06 10:03:02;;;;;;;4.63;1.80;;;18.60;99.90;;;;;;5074864;28;20450;-59
2022/08/06 10:05:29;;;;;;;6.47;1.70;;;18.80;99.90;;;;;;5074649;28;20111;-61
2022/08/06 10:08:05;;;;;;;4.32;1.80;;;19.10;99.90;;;;;;5074572;28;20077;-60
2022/08/06 10:11:02;;;;;;;6.30;2.00;;;19.40;99.90;;;;;;5074555;28;20040;-60
2022/08/06 10:13:29;;;;;;;6.35;2.33;;;19.50;99.90;;;;;;5073785;28;20052;-61
2022/08/06 10:15:56;;;;;;;5.93;2.20;;;19.70;99.90;;;;;;5074395;28;20071;-60
2022/08/06 10:18:39;;;;;;;5.60;2.17;;;19.70;99.90;;;;;;5074126;28;20036;-60
2022/08/06 10:21:05;;;;;;;7.65;2.25;;;19.80;99.90;;;;;;5056251;28;20097;-60
2022/08/06 10:23:34;;;;;;;6.95;2.03;;;19.80;99.90;;;;;;5053839;28;20385;-60
2022/08/06 10:26:05;;;;;;;5.88;2.15;;;19.60;99.90;;;;;;5054014;28;20055;-60
2022/08/06 10:28:34;;;;;;;5.40;2.30;;;19.70;99.90;;;;;;5069387;28;20052;-60
2022/08/06 10:31:06;;;;;;;6.15;2.58;;;19.80;99.90;;;;;;5054039;28;20478;-60
2022/08/06 10:33:36;;;;;;;;;;;19.90;99.90;;;;;;5054479;28;20036;-60
2022/08/06 10:36:08;;;;;;;7.05;2.22;;;20.20;99.90;;;;;;5069430;28;19927;-60
2022/08/06 10:38:37;;;;;;;4.95;1.83;;;20.30;99.90;;;;;;5065575;28;20055;-60
2022/08/06 10:41:08;;;;;;;5.55;1.98;;;20.30;99.90;;;;;;5074071;28;20116;-60
2022/08/06 10:43:36;;;;;;;5.82;2.55;;;20.10;99.90;;;;;;5072529;28;20378;-60
2022/08/06 10:46:10;;;;;;;5.18;1.85;;;20.20;99.90;;;;;;5073328;28;20040;-60
2022/08/06 10:48:38;;;;;;;5.95;2.30;;;20.00;99.90;;;;;;5073484;28;20119;-60
2022/08/06 10:51:05;;;;;;;5.20;2.40;;;19.90;99.90;;;;;;5073710;28;20396;-60
2022/08/06 10:53:37;;;;;;;6.50;2.72;;;20.00;99.50;;;;;;5073727;28;20075;-60
2022/08/06 10:56:05;;;;;;;7.70;2.40;;;20.20;99.90;;;;;;5073343;28;20051;-60
2022/08/06 10:58:32;;;;;;;5.20;2.58;;;20.10;99.90;;;;;;5073500;28;20051;-60
2022/08/06 11:01:12;;;;;;;5.07;2.30;;;20.10;99.30;;;;;;5073503;28;20098;-60
2022/08/06 11:04:06;;;;;;;8.18;2.45;;;20.00;99.20;;;;;;5073434;28;20048;-59
2022/08/06 11:06:46;;;;;;;6.22;2.70;;;20.20;99.50;;;;;;5073231;28;20064;-60
2022/08/06 11:09:42;;;;;;;5.90;2.60;;;20.60;99.40;;;;;;5073395;28;20389;-60
2022/08/06 11:12:40;;;;;;;6.03;2.47;;;20.00;98.40;;;;;;5059009;28;20040;-60
2022/08/06 11:15:07;;;;;;;5.10;2.28;;;20.30;98.50;;;;;;5046891;28;20106;-61
2022/08/06 11:17:51;;;;;;;6.38;2.30;;;20.30;99.20;;;;;;5053463;28;20061;-61
2022/08/06 11:20:31;;;;;;;5.70;2.60;;;19.90;97.90;;;;;;5041338;28;20041;-60
2022/08/06 11:23:05;;;;;;;5.82;3.20;;;20.20;98.60;;;;;;5033084;28;20041;-60
2022/08/06 11:25:40;;;;;;;6.43;2.95;;;19.90;98.10;;;;;;5032913;28;20038;-61
2022/08/06 11:28:07;;;;;;;5.53;2.80;;;19.60;98.70;;;;;;5033027;28;20052;-61
2022/08/06 11:30:37;;;;;;;5.85;2.55;;;19.60;99.90;;;;;;5032724;28;20103;-60
2022/08/06 11:33:02;;;;;;;6.30;2.88;;;19.60;99.70;;;;;;5032958;28;20037;-59
2022/08/06 11:35:34;;;;;;;8.88;3.25;;;19.60;99.40;;;;;;5032081;28;20532;-60
2022/08/06 11:38:41;;;;;;;6.60;3.05;;;19.50;99.70;;;;;;5045761;28;20050;-61
2022/08/06 11:41:09;;;;;;;7.70;2.80;;;19.20;99.90;;;;;;5034477;28;20052;-60
2022/08/06 11:43:47;;;;;;;5.95;2.75;;;19.40;99.90;;;;;;5072658;28;20186;-60
2022/08/06 11:46:38;;;;;;;7.55;3.25;;;19.50;99.90;;;;;;5072439;28;20049;-60
2022/08/06 11:49:11;;;;;;;7.18;3.28;;;19.50;99.90;;;;;;5072739;28;20041;-60
2022/08/06 11:51:50;;;;;;;6.25;3.05;;;19.90;99.90;;;;;;5072774;28;20044;-60
2022/08/06 11:54:17;;;;;;;6.22;2.90;;;19.70;99.90;;;;;;5072542;28;20451;-61
2022/08/06 11:57:01;;;;;;;6.57;2.83;;;19.40;99.90;;;;;;5072548;28;20040;-60
2022/08/06 11:59:32;;;;;;;8.50;2.97;;;19.80;99.90;;;;;;5072348;28;20050;-61
2022/08/06 12:01:59;;;;;;;6.53;2.95;;;19.70;99.90;;;;;;5072371;28;20059;-60
2022/08/06 12:04:34;;;;;;;8.55;3.00;;;19.70;99.90;;;;;;5071902;28;20124;-59
2022/08/06 12:07:23;;;;;;;7.72;3.25;;;19.60;99.30;;;;;;5072017;28;20040;-60
2022/08/06 12:10:02;;;;;;;7.25;3.03;;;19.80;99.40;;;;;;5072169;28;20045;-60
2022/08/06 12:12:31;;;;;;;6.25;3.20;;;20.20;98.80;;;;;;5071322;28;20500;-61
2022/08/06 12:15:12;;;;;;;6.00;2.83;;;19.90;98.70;;;;;;5072060;28;20046;-60
2022/08/06 12:17:40;;;;;;;7.28;3.50;;;20.10;98.50;;;;;;5072042;28;20040;-60
2022/08/06 12:20:07;;;;;;;8.95;3.38;;;20.30;99.30;;;;;;5061814;28;20037;-61
2022/08/06 12:22:35;;;;;;;6.38;3.20;;;20.60;98.90;;;;;;5052337;28;20124;-60
2022/08/06 12:25:06;;;;;;;7.05;3.17;;;20.50;98.70;;;;;;5052182;28;20398;-61
2022/08/06 12:27:35;;;;;;;5.35;2.83;;;20.50;98.40;;;;;;5052109;28;20063;-61
2022/08/06 12:30:02;;;;;;;6.05;3.40;;;20.70;98.30;;;;;;5051946;28;20029;-60
2022/08/06 12:32:29;;;;;;;6.30;3.15;;;20.90;99.10;;;;;;5052005;28;20055;-61
2022/08/06 12:34:58;;;;;;;7.45;3.28;;;21.10;98.70;;;;;;5051712;28;20048;-60
2022/08/06 12:37:34;;;;;;;8.00;3.33;;;20.80;98.30;;;;;;5053554;28;20497;-60
2022/08/06 12:40:26;;;;;;;6.32;3.22;;;21.10;96.80;;;;;;5072034;28;20049;-60
2022/08/06 12:42:53;;;;;;;5.82;2.90;;;21.00;96.90;;;;;;5072018;28;20132;-60
2022/08/06 12:45:23;;;;;;;6.30;2.70;;;20.60;96.70;;;;;;5071923;28;20032;-61
2022/08/06 12:47:56;;;;;;;6.97;3.53;;;20.20;97.10;;;;;;5074683;28;20110;-60
2022/08/06 12:50:22;;;;;;;8.18;3.55;;;20.60;98.10;;;;;;5075956;28;20040;-60
2022/08/06 12:53:03;;;;;;;6.00;3.60;;;20.60;97.90;;;;;;5076008;28;20041;-60
2022/08/06 12:55:46;;;;;;;7.03;3.78;;;20.80;96.90;;;;;;5075050;28;20044;-61
2022/08/06 12:58:18;;;;;;;6.82;3.42;;;20.90;97.00;;;;;;5075761;28;20128;-60
2022/08/06 13:00:48;;;;;;;5.82;3.17;;;20.90;97.20;;;;;;5075937;28;20032;-60
2022/08/06 13:03:14;;;;;;;5.57;3.00;;;20.70;96.70;;;;;;5075754;28;20036;-61
2022/08/06 13:05:43;;;;;;;6.15;3.20;;;20.50;97.50;;;;;;5075417;28;20397;-59
2022/08/06 13:08:09;;;;;;;5.80;3.10;;;20.30;96.90;;;;;;5075735;28;20033;-60
2022/08/06 13:10:35;;;;;;;6.10;3.13;;;20.50;97.90;;;;;;5075652;28;20076;-60